Time,TemperatureF,DewpointF,PressureIn,WindDirection,WindDirectionDegrees,WindSpeedMPH,WindSpeedGustMPH,Humidity,HourlyPrecipIn,Conditions,Clouds,dailyrainin,SoftwareType,DateUTC
2013-01-24 00:05:00,13.0,10.1,30.23,NNE,15,7.0,11.0,88,0.00,,,0.00,Wunderground v.1.15,2013-01-24 05:05:00,
2013-01-24 00:10:00,12.9,9.8,30.24,NNW,333,7.0,7.0,87,0.00,,,0.00,Wunderground v.1.15,2013-01-24 05:10:00,
2013-01-24 00:15:00,12.9,10.0,30.24,NNE,23,8.0,10.0,88,0.00,,,0.00,Wunderground v.1.15,2013-01-24 05:15:00,
2013-01-24 00:20:00,12.8,9.7,30.25,North,11,9.0,13.0,87,0.00,,,0.00,Wunderground v.1.15,2013-01-24 05:20:00,
2013-01-24 00:25:00,12.5,9.1,30.25,NNW,330,10.0,13.0,86,0.00,,,0.00,Wunderground v.1.15,2013-01-24 05:25:00,
2013-01-24 00:30:00,12.2,8.6,30.25,NNE,23,10.0,10.0,85,0.00,,,0.00,Wunderground v.1.15,2013-01-24 05:30:00,
2013-01-24 00:35:00,12.0,8.1,30.25,North,352,10.0,10.0,84,0.00,,,0.00,Wunderground v.1.15,2013-01-24 05:35:00,
2013-01-24 00:40:00,11.8,7.9,30.25,NNW,345,10.0,10.0,84,0.00,,,0.00,Wunderground v.1.15,2013-01-24 05:40:00,
2013-01-24 00:45:00,11.7,7.5,30.25,NNE,27,8.0,11.0,83,0.00,,,0.00,Wunderground v.1.15,2013-01-24 05:45:00,
2013-01-24 00:50:00,11.8,7.6,30.25,NNW,329,7.0,7.0,83,0.00,,,0.00,Wunderground v.1.15,2013-01-24 05:50:00,
2013-01-24 00:55:00,11.9,7.5,30.26,NNE,23,7.0,10.0,82,0.00,,,0.00,Wunderground v.1.15,2013-01-24 05:55:00,
2013-01-24 01:00:00,11.7,7.0,30.26,NNW,340,6.0,6.0,81,0.00,,,0.00,Wunderground v.1.15,2013-01-24 06:00:00,
2013-01-24 01:10:00,11.6,7.2,30.27,NNW,342,5.0,5.0,82,0.00,,,0.00,Wunderground v.1.15,2013-01-24 06:10:00,
2013-01-24 01:15:00,11.5,6.8,30.28,NNW,334,5.0,5.0,81,0.00,,,0.00,Wunderground v.1.15,2013-01-24 06:15:00,
2013-01-24 01:20:00,11.4,6.4,30.28,NE,39,5.0,5.0,80,0.00,,,0.00,Wunderground v.1.15,2013-01-24 06:20:00,
2013-01-24 01:25:00,11.3,6.3,30.29,NNW,330,5.0,5.0,80,0.00,,,0.00,Wunderground v.1.15,2013-01-24 06:25:00,
2013-01-24 01:30:00,11.2,6.2,30.29,North,355,5.0,6.0,80,0.00,,,0.00,Wunderground v.1.15,2013-01-24 06:30:00,
2013-01-24 01:40:00,10.9,5.9,30.30,NNE,18,4.0,9.0,80,0.00,,,0.00,Wunderground v.1.15,2013-01-24 06:40:00,
2013-01-24 01:45:00,10.8,5.8,30.31,North,360,5.0,9.0,80,0.00,,,0.00,Wunderground v.1.15,2013-01-24 06:45:00,
2013-01-24 01:50:00,10.7,5.7,30.31,North,349,7.0,7.0,80,0.00,,,0.00,Wunderground v.1.15,2013-01-24 06:50:00,
2013-01-24 01:55:00,10.6,5.6,30.31,North,360,7.0,7.0,80,0.00,,,0.00,Wunderground v.1.15,2013-01-24 06:55:00,
2013-01-24 02:00:00,10.4,5.5,30.32,NW,318,6.0,6.0,80,0.00,,,0.00,Wunderground v.1.15,2013-01-24 07:00:00,
2013-01-24 02:10:00,10.1,5.2,30.32,NNW,332,4.0,4.0,80,0.00,,,0.00,Wunderground v.1.15,2013-01-24 07:10:00,
2013-01-24 02:15:00,9.9,5.0,30.32,North,354,4.0,5.0,80,0.00,,,0.00,Wunderground v.1.15,2013-01-24 07:15:00,
2013-01-24 02:20:00,9.7,4.8,30.32,NNW,342,4.0,4.0,80,0.00,,,0.00,Wunderground v.1.15,2013-01-24 07:20:00,
2013-01-24 02:25:00,9.7,4.8,30.33,NNW,342,5.0,5.0,80,0.00,,,0.00,Wunderground v.1.15,2013-01-24 07:25:00,
2013-01-24 02:30:00,9.7,4.8,30.33,North,8,5.0,5.0,80,0.00,,,0.00,Wunderground v.1.15,2013-01-24 07:30:00,
2013-01-24 02:35:00,9.6,4.7,30.34,NNW,337,5.0,5.0,80,0.00,,,0.00,Wunderground v.1.15,2013-01-24 07:35:00,
2013-01-24 02:45:00,9.1,4.5,30.35,NNW,342,3.0,5.0,81,0.00,,,0.00,Wunderground v.1.15,2013-01-24 07:45:00,
2013-01-24 02:50:00,8.9,4.3,30.36,NNW,340,3.0,3.0,81,0.00,,,0.00,Wunderground v.1.15,2013-01-24 07:50:00,
2013-01-24 02:55:00,8.9,4.5,30.36,North,360,3.0,3.0,82,0.00,,,0.00,Wunderground v.1.15,2013-01-24 07:55:00,
2013-01-24 03:00:00,8.5,4.1,30.36,NW,323,2.0,2.0,82,0.00,,,0.00,Wunderground v.1.15,2013-01-24 08:00:00,
2013-01-24 03:10:00,7.8,3.7,30.37,NNW,328,1.0,1.0,83,0.00,,,0.00,Wunderground v.1.15,2013-01-24 08:10:00,
2013-01-24 03:15:00,7.7,3.6,30.37,NNW,338,1.0,1.0,83,0.00,,,0.00,Wunderground v.1.15,2013-01-24 08:15:00,
2013-01-24 03:20:00,7.5,3.7,30.37,NNW,337,1.0,1.0,84,0.00,,,0.00,Wunderground v.1.15,2013-01-24 08:20:00,
2013-01-24 03:25:00,7.5,3.7,30.38,NNW,340,2.0,2.0,84,0.00,,,0.00,Wunderground v.1.15,2013-01-24 08:25:00,
2013-01-24 03:30:00,7.6,4.0,30.38,North,357,2.0,3.0,85,0.00,,,0.00,Wunderground v.1.15,2013-01-24 08:30:00,
2013-01-24 03:35:00,7.5,3.7,30.39,NNW,338,2.0,3.0,84,0.00,,,0.00,Wunderground v.1.15,2013-01-24 08:35:00,
2013-01-24 03:40:00,7.4,3.6,30.39,NW,314,2.0,2.0,84,0.00,,,0.00,Wunderground v.1.15,2013-01-24 08:40:00,
2013-01-24 03:50:00,7.2,3.6,30.40,NW,321,1.0,1.0,85,0.00,,,0.00,Wunderground v.1.15,2013-01-24 08:50:00,
2013-01-24 03:55:00,7.0,3.4,30.39,NNW,332,1.0,1.0,85,0.00,,,0.00,Wunderground v.1.15,2013-01-24 08:55:00,
2013-01-24 04:00:00,6.6,3.0,30.39,NW,307,1.0,1.0,85,0.00,,,0.00,Wunderground v.1.15,2013-01-24 09:00:00,
2013-01-24 04:10:00,6.3,3.0,30.40,NNW,340,1.0,1.0,86,0.00,,,0.00,Wunderground v.1.15,2013-01-24 09:10:00,
2013-01-24 04:15:00,6.3,3.0,30.40,North,359,1.0,2.0,86,0.00,,,0.00,Wunderground v.1.15,2013-01-24 09:15:00,
2013-01-24 04:20:00,6.4,3.4,30.40,North,359,1.0,1.0,87,0.00,,,0.00,Wunderground v.1.15,2013-01-24 09:20:00,
2013-01-24 04:30:00,6.5,3.5,30.40,NW,324,1.0,1.0,87,0.00,,,0.00,Wunderground v.1.15,2013-01-24 09:30:00,
2013-01-24 04:35:00,5.9,2.6,30.41,WNW,295,0.0,1.0,86,0.00,,,0.00,Wunderground v.1.15,2013-01-24 09:35:00,
2013-01-24 04:40:00,5.5,2.5,30.41,WNW,295,0.0,0.0,87,0.00,,,0.00,Wunderground v.1.15,2013-01-24 09:40:00,
2013-01-24 04:45:00,5.4,2.4,30.41,WNW,295,0.0,0.0,87,0.00,,,0.00,Wunderground v.1.15,2013-01-24 09:45:00,
2013-01-24 04:50:00,5.1,2.3,30.42,WNW,295,0.0,0.0,88,0.00,,,0.00,Wunderground v.1.15,2013-01-24 09:50:00,
2013-01-24 04:55:00,5.0,2.2,30.42,NW,325,0.0,1.0,88,0.00,,,0.00,Wunderground v.1.15,2013-01-24 09:55:00,
2013-01-24 05:00:00,4.6,1.6,30.43,NW,315,0.0,1.0,87,0.00,,,0.00,Wunderground v.1.15,2013-01-24 10:00:00,
2013-01-24 05:10:00,3.4,0.4,30.43,NW,307,1.0,1.0,87,0.00,,,0.00,Wunderground v.1.15,2013-01-24 10:10:00,
2013-01-24 05:15:00,3.1,0.3,30.43,NW,318,0.0,1.0,88,0.00,,,0.00,Wunderground v.1.15,2013-01-24 10:15:00,
2013-01-24 05:25:00,3.2,0.9,30.44,NW,323,1.0,1.0,90,0.00,,,0.00,Wunderground v.1.15,2013-01-24 10:25:00,
2013-01-24 05:30:00,3.6,1.3,30.44,NW,316,1.0,1.0,90,0.00,,,0.00,Wunderground v.1.15,2013-01-24 10:30:00,
2013-01-24 05:35:00,3.9,1.6,30.44,North,349,1.0,2.0,90,0.00,,,0.00,Wunderground v.1.15,2013-01-24 10:35:00,
2013-01-24 05:40:00,4.4,2.1,30.44,NW,322,2.0,2.0,90,0.00,,,0.00,Wunderground v.1.15,2013-01-24 10:40:00,
2013-01-24 05:45:00,4.2,1.4,30.45,NW,313,2.0,2.0,88,0.00,,,0.00,Wunderground v.1.15,2013-01-24 10:45:00,
2013-01-24 05:55:00,5.0,2.7,30.46,North,352,2.0,3.0,90,0.00,,,0.00,Wunderground v.1.15,2013-01-24 10:55:00,
2013-01-24 06:00:00,5.3,2.8,30.47,NNW,342,3.0,5.0,89,0.00,,,0.00,Wunderground v.1.15,2013-01-24 11:00:00,
2013-01-24 06:10:00,5.6,3.1,30.48,NW,312,3.0,3.0,89,0.00,,,0.00,Wunderground v.1.15,2013-01-24 11:10:00,
2013-01-24 06:15:00,5.6,2.8,30.48,NNW,335,3.0,3.0,88,0.00,,,0.00,Wunderground v.1.15,2013-01-24 11:15:00,
2013-01-24 06:20:00,5.9,3.4,30.48,NW,321,4.0,4.0,89,0.00,,,0.00,Wunderground v.1.15,2013-01-24 11:20:00,
2013-01-24 06:30:00,5.9,3.1,30.50,NNE,25,5.0,6.0,88,0.00,,,0.00,Wunderground v.1.15,2013-01-24 11:30:00,
2013-01-24 06:35:00,5.9,3.1,30.50,North,9,5.0,6.0,88,0.00,,,0.00,Wunderground v.1.15,2013-01-24 11:35:00,
2013-01-24 06:40:00,5.8,3.0,30.50,NNW,332,5.0,5.0,88,0.00,,,0.00,Wunderground v.1.15,2013-01-24 11:40:00,
2013-01-24 06:45:00,5.8,3.0,30.50,NNW,339,4.0,5.0,88,0.00,,,0.00,Wunderground v.1.15,2013-01-24 11:45:00,
2013-01-24 06:50:00,5.7,2.9,30.51,North,359,4.0,4.0,88,0.00,,,0.00,Wunderground v.1.15,2013-01-24 11:50:00,
2013-01-24 07:00:00,5.7,2.9,30.51,North,11,4.0,5.0,88,0.00,,,0.00,Wunderground v.1.15,2013-01-24 12:00:00,
2013-01-24 07:10:00,5.6,2.6,30.53,NW,316,4.0,4.0,87,0.00,,,0.00,Wunderground v.1.15,2013-01-24 12:10:00,
2013-01-24 07:15:00,5.6,2.6,30.53,North,1,4.0,4.0,87,0.00,,,0.00,Wunderground v.1.15,2013-01-24 12:15:00,
2013-01-24 07:20:00,5.5,2.5,30.54,NNW,337,4.0,4.0,87,0.00,,,0.00,Wunderground v.1.15,2013-01-24 12:20:00,
2013-01-24 07:25:00,5.5,2.5,30.54,North,350,4.0,6.0,87,0.00,,,0.00,Wunderground v.1.15,2013-01-24 12:25:00,
2013-01-24 07:35:00,5.6,2.3,30.55,North,352,5.0,7.0,86,0.00,,,0.00,Wunderground v.1.15,2013-01-24 12:35:00,
2013-01-24 07:40:00,5.6,2.3,30.55,NW,322,6.0,6.0,86,0.00,,,0.00,Wunderground v.1.15,2013-01-24 12:40:00,
2013-01-24 07:45:00,5.6,2.3,30.55,NNW,348,5.0,6.0,86,0.00,,,0.00,Wunderground v.1.15,2013-01-24 12:45:00,
2013-01-24 07:50:00,5.5,2.2,30.56,NNW,337,5.0,5.0,86,0.00,,,0.00,Wunderground v.1.15,2013-01-24 12:50:00,
2013-01-24 07:55:00,5.3,2.0,30.56,NW,324,4.0,5.0,86,0.00,,,0.00,Wunderground v.1.15,2013-01-24 12:55:00,
2013-01-24 08:00:00,5.2,1.9,30.56,NNW,335,4.0,4.0,86,0.00,,,0.00,Wunderground v.1.15,2013-01-24 13:00:00,
2013-01-24 08:10:00,5.2,1.7,30.57,North,359,4.0,4.0,85,0.00,,,0.00,Wunderground v.1.15,2013-01-24 13:10:00,
2013-01-24 08:15:00,5.2,1.7,30.57,NNE,15,4.0,4.0,85,0.00,,,0.00,Wunderground v.1.15,2013-01-24 13:15:00,
2013-01-24 08:20:00,5.4,1.9,30.57,NNW,338,3.0,3.0,85,0.00,,,0.00,Wunderground v.1.15,2013-01-24 13:20:00,
2013-01-24 08:25:00,5.6,2.1,30.57,North,11,3.0,4.0,85,0.00,,,0.00,Wunderground v.1.15,2013-01-24 13:25:00,
2013-01-24 08:30:00,5.7,2.2,30.57,North,8,3.0,5.0,85,0.00,,,0.00,Wunderground v.1.15,2013-01-24 13:30:00,
2013-01-24 08:40:00,6.1,2.3,30.57,North,3,5.0,5.0,84,0.00,,,0.00,Wunderground v.1.15,2013-01-24 13:40:00,
2013-01-24 08:45:00,6.2,2.4,30.58,North,354,5.0,5.0,84,0.00,,,0.00,Wunderground v.1.15,2013-01-24 13:45:00,
2013-01-24 08:50:00,6.3,2.5,30.58,NNE,14,5.0,5.0,84,0.00,,,0.00,Wunderground v.1.15,2013-01-24 13:50:00,
2013-01-24 08:55:00,6.3,2.2,30.59,NE,39,4.0,6.0,83,0.00,,,0.00,Wunderground v.1.15,2013-01-24 13:55:00,
2013-01-24 09:00:00,6.3,2.2,30.59,NNE,25,4.0,6.0,83,0.00,,,0.00,Wunderground v.1.15,2013-01-24 14:00:00,
2013-01-24 09:10:00,6.4,2.3,30.60,NE,37,5.0,5.0,83,0.00,,,0.00,Wunderground v.1.15,2013-01-24 14:10:00,
2013-01-24 09:15:00,6.5,2.4,30.60,NNE,27,5.0,10.0,83,0.00,,,0.00,Wunderground v.1.15,2013-01-24 14:15:00,
2013-01-24 09:20:00,6.6,2.5,30.60,NNE,29,6.0,7.0,83,0.00,,,0.00,Wunderground v.1.15,2013-01-24 14:20:00,
2013-01-24 09:25:00,6.7,2.4,30.61,NNE,23,6.0,7.0,82,0.00,,,0.00,Wunderground v.1.15,2013-01-24 14:25:00,
2013-01-24 09:30:00,6.7,2.4,30.61,NE,51,6.0,8.0,82,0.00,,,0.00,Wunderground v.1.15,2013-01-24 14:30:00,
2013-01-24 09:35:00,6.7,2.4,30.61,NNE,18,7.0,8.0,82,0.00,,,0.00,Wunderground v.1.15,2013-01-24 14:35:00,
2013-01-24 09:40:00,6.8,2.5,30.62,NE,51,6.0,6.0,82,0.00,,,0.00,Wunderground v.1.15,2013-01-24 14:40:00,
2013-01-24 09:45:00,7.2,2.6,30.62,ENE,70,5.0,7.0,81,0.00,,,0.00,Wunderground v.1.15,2013-01-24 14:45:00,
2013-01-24 09:50:00,7.5,2.6,30.63,NE,41,4.0,4.0,80,0.00,,,0.00,Wunderground v.1.15,2013-01-24 14:50:00,
2013-01-24 09:55:00,7.8,2.9,30.63,NE,41,4.0,4.0,80,0.00,,,0.00,Wunderground v.1.15,2013-01-24 14:55:00,
2013-01-24 10:00:00,8.1,2.9,30.64,ENE,75,4.0,4.0,79,0.00,,,0.00,Wunderground v.1.15,2013-01-24 15:00:00,
2013-01-24 10:10:00,8.5,2.8,30.64,NE,46,3.0,4.0,77,0.00,,,0.00,Wunderground v.1.15,2013-01-24 15:10:00,
2013-01-24 10:15:00,8.6,2.9,30.65,NE,47,4.0,4.0,77,0.00,,,0.00,Wunderground v.1.15,2013-01-24 15:15:00,
2013-01-24 10:20:00,8.7,2.7,30.65,NE,37,5.0,5.0,76,0.00,,,0.00,Wunderground v.1.15,2013-01-24 15:20:00,
2013-01-24 10:25:00,8.9,2.9,30.66,NNE,31,5.0,5.0,76,0.00,,,0.00,Wunderground v.1.15,2013-01-24 15:25:00,
2013-01-24 10:30:00,9.1,2.8,30.66,NE,44,4.0,5.0,75,0.00,,,0.00,Wunderground v.1.15,2013-01-24 15:30:00,
2013-01-24 10:35:00,9.2,2.6,30.66,NE,48,4.0,7.0,74,0.00,,,0.00,Wunderground v.1.15,2013-01-24 15:35:00,
2013-01-24 10:45:00,9.9,3.3,30.67,East,86,3.0,4.0,74,0.00,,,0.00,Wunderground v.1.15,2013-01-24 15:45:00,
2013-01-24 10:50:00,10.2,2.7,30.67,NE,49,3.0,5.0,71,0.00,,,0.00,Wunderground v.1.15,2013-01-24 15:50:00,
2013-01-24 10:55:00,10.3,3.4,30.67,NNE,32,3.0,5.0,73,0.00,,,0.00,Wunderground v.1.15,2013-01-24 15:55:00,
2013-01-24 11:00:00,10.7,3.4,30.67,ENE,72,3.0,4.0,72,0.00,,,0.00,Wunderground v.1.15,2013-01-24 16:00:00,
2013-01-24 11:10:00,11.0,3.1,30.67,East,80,3.0,3.0,70,0.00,,,0.00,Wunderground v.1.15,2013-01-24 16:10:00,
2013-01-24 11:20:00,11.6,3.4,30.68,ENE,72,3.0,4.0,69,0.00,,,0.00,Wunderground v.1.15,2013-01-24 16:20:00,
2013-01-24 11:25:00,11.8,3.6,30.67,East,82,3.0,4.0,69,0.00,,,0.00,Wunderground v.1.15,2013-01-24 16:25:00,
2013-01-24 11:30:00,11.8,2.9,30.67,ESE,103,4.0,4.0,67,0.00,,,0.00,Wunderground v.1.15,2013-01-24 16:30:00,
2013-01-24 11:35:00,11.9,3.4,30.67,ESE,118,4.0,6.0,68,0.00,,,0.00,Wunderground v.1.15,2013-01-24 16:35:00,
2013-01-24 11:40:00,12.0,2.8,30.67,ESE,103,4.0,5.0,66,0.00,,,0.00,Wunderground v.1.15,2013-01-24 16:40:00,
2013-01-24 11:50:00,12.5,3.3,30.67,East,100,4.0,5.0,66,0.00,,,0.00,Wunderground v.1.15,2013-01-24 16:50:00,
2013-01-24 11:55:00,12.5,2.6,30.67,East,91,4.0,5.0,64,0.00,,,0.00,Wunderground v.1.15,2013-01-24 16:55:00,
2013-01-24 12:00:00,12.6,2.7,30.67,ESE,116,4.0,5.0,64,0.00,,,0.00,Wunderground v.1.15,2013-01-24 17:00:00,
2013-01-24 12:10:00,13.2,2.9,30.67,ENE,71,3.0,6.0,63,0.00,,,0.00,Wunderground v.1.15,2013-01-24 17:10:00,
2013-01-24 12:15:00,13.3,3.0,30.67,SE,128,2.0,6.0,63,0.00,,,0.00,Wunderground v.1.15,2013-01-24 17:15:00,
2013-01-24 12:25:00,13.6,3.7,30.66,ESE,105,3.0,4.0,64,0.00,,,0.00,Wunderground v.1.15,2013-01-24 17:25:00,
2013-01-24 12:30:00,13.5,3.2,30.66,ESE,113,2.0,2.0,63,0.00,,,0.00,Wunderground v.1.15,2013-01-24 17:30:00,
2013-01-24 12:35:00,13.9,4.0,30.66,ENE,75,2.0,3.0,64,0.00,,,0.00,Wunderground v.1.15,2013-01-24 17:35:00,
2013-01-24 12:40:00,13.9,3.3,30.66,ENE,73,2.0,3.0,62,0.00,,,0.00,Wunderground v.1.15,2013-01-24 17:40:00,
2013-01-24 12:45:00,14.0,3.4,30.66,SE,134,2.0,3.0,62,0.00,,,0.00,Wunderground v.1.15,2013-01-24 17:45:00,
2013-01-24 12:55:00,15.8,4.4,30.66,SSE,166,1.0,2.0,60,0.00,,,0.00,Wunderground v.1.15,2013-01-24 17:55:00,
2013-01-24 13:00:00,16.2,4.4,30.66,ESE,115,1.0,1.0,59,0.00,,,0.00,Wunderground v.1.15,2013-01-24 18:00:00,
2013-01-24 13:10:00,15.6,3.8,30.65,South,177,1.0,2.0,59,0.00,,,0.00,Wunderground v.1.15,2013-01-24 18:10:00,
2013-01-24 13:15:00,16.5,3.5,30.65,SE,125,1.0,2.0,56,0.00,,,0.00,Wunderground v.1.15,2013-01-24 18:15:00,
2013-01-24 13:20:00,16.1,3.5,30.65,SE,136,1.0,1.0,57,0.00,,,0.00,Wunderground v.1.15,2013-01-24 18:20:00,
2013-01-24 13:30:00,15.9,3.0,30.64,ESE,113,2.0,2.0,56,0.00,,,0.00,Wunderground v.1.15,2013-01-24 18:30:00,
2013-01-24 13:35:00,16.0,3.0,30.64,ESE,121,2.0,2.0,56,0.00,,,0.00,Wunderground v.1.15,2013-01-24 18:35:00,
2013-01-24 13:40:00,16.1,3.1,30.64,ESE,118,1.0,1.0,56,0.00,,,0.00,Wunderground v.1.15,2013-01-24 18:40:00,
2013-01-24 13:45:00,15.8,2.1,30.64,ESE,110,2.0,2.0,54,0.00,,,0.00,Wunderground v.1.15,2013-01-24 18:45:00,
2013-01-24 13:50:00,15.6,1.9,30.64,SE,128,2.0,2.0,54,0.00,,,0.00,Wunderground v.1.15,2013-01-24 18:50:00,
2013-01-24 13:55:00,15.6,2.3,30.63,ESE,113,2.0,2.0,55,0.00,,,0.00,Wunderground v.1.15,2013-01-24 18:55:00,
2013-01-24 14:05:00,15.8,2.1,30.63,ESE,115,1.0,1.0,54,0.00,,,0.00,Wunderground v.1.15,2013-01-24 19:05:00,
2013-01-24 14:10:00,16.3,2.1,30.63,SE,136,1.0,1.0,53,0.00,,,0.00,Wunderground v.1.15,2013-01-24 19:10:00,
2013-01-24 14:15:00,16.6,1.6,30.63,SE,125,1.0,1.0,51,0.00,,,0.00,Wunderground v.1.15,2013-01-24 19:15:00,
2013-01-24 14:20:00,16.2,1.2,30.63,East,79,2.0,2.0,51,0.00,,,0.00,Wunderground v.1.15,2013-01-24 19:20:00,
2013-01-24 14:25:00,15.8,0.8,30.63,ESE,113,2.0,2.0,51,0.00,,,0.00,Wunderground v.1.15,2013-01-24 19:25:00,
2013-01-24 14:30:00,15.8,0.8,30.63,ESE,115,2.0,2.0,51,0.00,,,0.00,Wunderground v.1.15,2013-01-24 19:30:00,
2013-01-24 14:35:00,15.8,1.3,30.63,ESE,110,1.0,2.0,52,0.00,,,0.00,Wunderground v.1.15,2013-01-24 19:35:00,
2013-01-24 14:40:00,15.9,1.8,30.63,ESE,113,1.0,1.0,53,0.00,,,0.00,Wunderground v.1.15,2013-01-24 19:40:00,
2013-01-24 14:45:00,16.6,2.0,30.62,SE,131,1.0,2.0,52,0.00,,,0.00,Wunderground v.1.15,2013-01-24 19:45:00,
2013-01-24 14:50:00,16.6,1.2,30.62,SE,133,2.0,2.0,50,0.00,,,0.00,Wunderground v.1.15,2013-01-24 19:50:00,
2013-01-24 14:55:00,16.4,1.4,30.62,ESE,121,2.0,2.0,51,0.00,,,0.00,Wunderground v.1.15,2013-01-24 19:55:00,
2013-01-24 15:00:00,16.0,1.0,30.62,ESE,109,2.0,2.0,51,0.00,,,0.00,Wunderground v.1.15,2013-01-24 20:00:00,
2013-01-24 15:10:00,16.0,0.6,30.61,SSE,153,1.0,1.0,50,0.00,,,0.00,Wunderground v.1.15,2013-01-24 20:10:00,
2013-01-24 15:15:00,16.3,0.9,30.62,SE,127,1.0,1.0,50,0.00,,,0.00,Wunderground v.1.15,2013-01-24 20:15:00,
2013-01-24 15:20:00,16.8,1.8,30.62,SE,145,1.0,1.0,51,0.00,,,0.00,Wunderground v.1.15,2013-01-24 20:20:00,
2013-01-24 15:25:00,17.4,2.8,30.61,South,169,1.0,1.0,52,0.00,,,0.00,Wunderground v.1.15,2013-01-24 20:25:00,
2013-01-24 15:35:00,17.6,2.9,30.61,SE,134,1.0,1.0,52,0.00,,,0.00,Wunderground v.1.15,2013-01-24 20:35:00,
2013-01-24 15:40:00,17.4,2.3,30.61,SE,145,1.0,1.0,51,0.00,,,0.00,Wunderground v.1.15,2013-01-24 20:40:00,
2013-01-24 15:45:00,16.8,1.3,30.62,SE,130,1.0,1.0,50,0.00,,,0.00,Wunderground v.1.15,2013-01-24 20:45:00,
2013-01-24 15:50:00,16.1,0.3,30.62,ESE,110,2.0,2.0,49,0.00,,,0.00,Wunderground v.1.15,2013-01-24 20:50:00,
2013-01-24 15:55:00,15.6,0.7,30.62,ESE,111,2.0,2.0,51,0.00,,,0.00,Wunderground v.1.15,2013-01-24 20:55:00,
2013-01-24 16:05:00,15.5,0.1,30.62,East,94,2.0,2.0,50,0.00,,,0.00,Wunderground v.1.15,2013-01-24 21:05:00,
2013-01-24 16:10:00,15.4,0.0,30.62,ESE,103,1.0,1.0,50,0.00,,,0.00,Wunderground v.1.15,2013-01-24 21:10:00,
2013-01-24 16:15:00,15.4,0.5,30.63,SE,127,1.0,1.0,51,0.00,,,0.00,Wunderground v.1.15,2013-01-24 21:15:00,
2013-01-24 16:20:00,15.4,0.0,30.62,SE,124,1.0,1.0,50,0.00,,,0.00,Wunderground v.1.15,2013-01-24 21:20:00,
2013-01-24 16:25:00,15.2,-0.6,30.61,ESE,116,1.0,2.0,49,0.00,,,0.00,Wunderground v.1.15,2013-01-24 21:25:00,
2013-01-24 16:30:00,15.0,-0.8,30.61,ESE,115,1.0,1.0,49,0.00,,,0.00,Wunderground v.1.15,2013-01-24 21:30:00,
2013-01-24 16:40:00,14.8,-0.5,30.61,SE,127,1.0,1.0,50,0.00,,,0.00,Wunderground v.1.15,2013-01-24 21:40:00,
2013-01-24 16:45:00,14.7,-0.6,30.61,ESE,121,1.0,1.0,50,0.00,,,0.00,Wunderground v.1.15,2013-01-24 21:45:00,
2013-01-24 16:50:00,14.7,-0.2,30.62,ESE,121,0.0,0.0,51,0.00,,,0.00,Wunderground v.1.15,2013-01-24 21:50:00,
2013-01-24 16:55:00,14.8,0.3,30.63,ESE,121,0.0,0.0,52,0.00,,,0.00,Wunderground v.1.15,2013-01-24 21:55:00,
2013-01-24 17:00:00,14.7,-0.2,30.62,ESE,121,0.0,0.0,51,0.00,,,0.00,Wunderground v.1.15,2013-01-24 22:00:00,
2013-01-24 17:10:00,14.1,-0.3,30.62,ESE,121,0.0,0.0,52,0.00,,,0.00,Wunderground v.1.15,2013-01-24 22:10:00,
2013-01-24 17:15:00,13.9,-0.1,30.62,ESE,121,0.0,0.0,53,0.00,,,0.00,Wunderground v.1.15,2013-01-24 22:15:00,
2013-01-24 17:20:00,13.6,-0.4,30.62,ESE,121,0.0,0.0,53,0.00,,,0.00,Wunderground v.1.15,2013-01-24 22:20:00,
2013-01-24 17:25:00,13.2,-0.8,30.62,ESE,121,0.0,0.0,53,0.00,,,0.00,Wunderground v.1.15,2013-01-24 22:25:00,
2013-01-24 17:30:00,13.0,-0.2,30.62,ESE,121,0.0,0.0,55,0.00,,,0.00,Wunderground v.1.15,2013-01-24 22:30:00,
2013-01-24 17:35:00,12.7,-0.1,30.62,ESE,122,0.0,0.0,56,0.00,,,0.00,Wunderground v.1.15,2013-01-24 22:35:00,
2013-01-24 17:45:00,12.5,-0.2,30.61,ESE,121,0.0,0.0,56,0.00,,,0.00,Wunderground v.1.15,2013-01-24 22:45:00,
2013-01-24 17:50:00,12.1,-0.2,30.61,ESE,121,0.0,0.0,57,0.00,,,0.00,Wunderground v.1.15,2013-01-24 22:50:00,
2013-01-24 17:55:00,12.1,0.1,30.61,ENE,69,0.0,1.0,58,0.00,,,0.00,Wunderground v.1.15,2013-01-24 22:55:00,
2013-01-24 18:00:00,12.3,-0.1,30.61,ENE,65,0.0,0.0,57,0.00,,,0.00,Wunderground v.1.15,2013-01-24 23:00:00,
2013-01-24 18:10:00,12.5,0.1,30.61,ENE,60,1.0,1.0,57,0.00,,,0.00,Wunderground v.1.15,2013-01-24 23:10:00,
2013-01-24 18:20:00,12.6,-0.2,30.61,ENE,62,1.0,1.0,56,0.00,,,0.00,Wunderground v.1.15,2013-01-24 23:20:00,
2013-01-24 18:25:00,12.6,0.2,30.61,ENE,62,0.0,1.0,57,0.00,,,0.00,Wunderground v.1.15,2013-01-24 23:25:00,
2013-01-24 18:30:00,12.5,0.1,30.60,East,94,0.0,0.0,57,0.00,,,0.00,Wunderground v.1.15,2013-01-24 23:30:00,
2013-01-24 18:35:00,12.5,-0.2,30.60,East,89,0.0,1.0,56,0.00,,,0.00,Wunderground v.1.15,2013-01-24 23:35:00,
2013-01-24 18:40:00,12.6,-0.2,30.60,ENE,77,1.0,1.0,56,0.00,,,0.00,Wunderground v.1.15,2013-01-24 23:40:00,
2013-01-24 18:50:00,12.6,-0.2,30.60,ENE,59,1.0,1.0,56,0.00,,,0.00,Wunderground v.1.15,2013-01-24 23:50:00,
2013-01-24 18:55:00,12.5,-0.6,30.60,ENE,58,1.0,2.0,55,0.00,,,0.00,Wunderground v.1.15,2013-01-24 23:55:00,
2013-01-24 19:00:00,12.7,-0.8,30.59,ENE,75,1.0,3.0,54,0.00,,,0.00,Wunderground v.1.15,2013-01-25 00:00:00,
2013-01-24 19:10:00,12.8,-0.7,30.59,East,80,1.0,3.0,54,0.00,,,0.00,Wunderground v.1.15,2013-01-25 00:10:00,
2013-01-24 19:15:00,12.8,-0.7,30.60,ENE,75,2.0,3.0,54,0.00,,,0.00,Wunderground v.1.15,2013-01-25 00:15:00,
2013-01-24 19:20:00,12.7,-0.4,30.59,East,85,2.0,2.0,55,0.00,,,0.00,Wunderground v.1.15,2013-01-25 00:20:00,
2013-01-24 19:25:00,12.7,-0.4,30.59,ENE,75,1.0,2.0,55,0.00,,,0.00,Wunderground v.1.15,2013-01-25 00:25:00,
2013-01-24 19:30:00,12.6,-0.2,30.59,East,85,2.0,2.0,56,0.00,,,0.00,Wunderground v.1.15,2013-01-25 00:30:00,
2013-01-24 19:35:00,12.6,-0.2,30.59,ESE,118,2.0,2.0,56,0.00,,,0.00,Wunderground v.1.15,2013-01-25 00:35:00,
2013-01-24 19:40:00,12.4,1.1,30.59,ESE,118,1.0,1.0,60,0.00,,,0.00,Wunderground v.1.15,2013-01-25 00:40:00,
2013-01-24 19:45:00,12.2,0.9,30.59,ESE,118,0.0,1.0,60,0.00,,,0.00,Wunderground v.1.15,2013-01-25 00:45:00,
2013-01-24 19:55:00,12.4,0.8,30.59,ENE,72,0.0,0.0,59,0.00,,,0.00,Wunderground v.1.15,2013-01-25 00:55:00,
2013-01-24 20:00:00,12.5,0.9,30.58,East,80,0.0,1.0,59,0.00,,,0.00,Wunderground v.1.15,2013-01-25 01:00:00,
2013-01-24 20:10:00,12.6,1.0,30.58,ENE,71,1.0,2.0,59,0.00,,,0.00,Wunderground v.1.15,2013-01-25 01:10:00,
2013-01-24 20:15:00,12.6,1.0,30.57,ENE,75,1.0,2.0,59,0.00,,,0.00,Wunderground v.1.15,2013-01-25 01:15:00,
2013-01-24 20:25:00,12.5,2.3,30.57,ESE,115,1.0,1.0,63,0.00,,,0.00,Wunderground v.1.15,2013-01-25 01:25:00,
2013-01-24 20:30:00,12.5,1.6,30.57,ENE,74,1.0,1.0,61,0.00,,,0.00,Wunderground v.1.15,2013-01-25 01:30:00,
2013-01-24 20:35:00,12.6,1.7,30.56,East,89,2.0,2.0,61,0.00,,,0.00,Wunderground v.1.15,2013-01-25 01:35:00,
2013-01-24 20:40:00,12.6,1.7,30.56,ENE,70,2.0,2.0,61,0.00,,,0.00,Wunderground v.1.15,2013-01-25 01:40:00,
2013-01-24 20:45:00,12.7,1.8,30.55,ENE,77,2.0,2.0,61,0.00,,,0.00,Wunderground v.1.15,2013-01-25 01:45:00,
2013-01-24 20:50:00,12.6,2.0,30.55,East,90,2.0,2.0,62,0.00,,,0.00,Wunderground v.1.15,2013-01-25 01:50:00,
2013-01-24 21:00:00,12.6,3.1,30.55,SE,142,1.0,1.0,65,0.00,,,0.00,Wunderground v.1.15,2013-01-25 02:00:00,
2013-01-24 21:10:00,12.5,3.6,30.55,ESE,108,0.0,1.0,67,0.00,,,0.00,Wunderground v.1.15,2013-01-25 02:10:00,
2013-01-24 21:15:00,12.6,3.1,30.55,East,89,1.0,1.0,65,0.00,,,0.00,Wunderground v.1.15,2013-01-25 02:15:00,
2013-01-24 21:20:00,12.8,3.2,30.55,East,89,1.0,1.0,65,0.00,,,0.00,Wunderground v.1.15,2013-01-25 02:20:00,
2013-01-24 21:30:00,12.9,3.7,30.55,ESE,113,1.0,1.0,66,0.00,,,0.00,Wunderground v.1.15,2013-01-25 02:30:00,
2013-01-24 21:35:00,12.9,3.7,30.56,ESE,115,1.0,1.0,66,0.00,,,0.00,Wunderground v.1.15,2013-01-25 02:35:00,
2013-01-24 21:40:00,13.0,3.8,30.55,ESE,115,0.0,0.0,66,0.00,,,0.00,Wunderground v.1.15,2013-01-25 02:40:00,
2013-01-24 21:45:00,13.0,3.8,30.55,ESE,115,0.0,0.0,66,0.00,,,0.00,Wunderground v.1.15,2013-01-25 02:45:00,
2013-01-24 21:50:00,13.0,3.8,30.55,East,97,0.0,0.0,66,0.00,,,0.00,Wunderground v.1.15,2013-01-25 02:50:00,
2013-01-24 21:55:00,13.2,3.3,30.55,ENE,69,0.0,0.0,64,0.00,,,0.00,Wunderground v.1.15,2013-01-25 02:55:00,
2013-01-24 22:00:00,13.3,3.4,30.55,ESE,119,0.0,0.0,64,0.00,,,0.00,Wunderground v.1.15,2013-01-25 03:00:00,
2013-01-24 22:10:00,13.4,3.1,30.54,East,86,1.0,1.0,63,0.00,,,0.00,Wunderground v.1.15,2013-01-25 03:10:00,
2013-01-24 22:15:00,13.5,3.2,30.54,East,79,1.0,2.0,63,0.00,,,0.00,Wunderground v.1.15,2013-01-25 03:15:00,
2013-01-24 22:20:00,13.5,3.2,30.54,ENE,78,1.0,2.0,63,0.00,,,0.00,Wunderground v.1.15,2013-01-25 03:20:00,
2013-01-24 22:25:00,13.6,3.3,30.53,ENE,72,2.0,2.0,63,0.00,,,0.00,Wunderground v.1.15,2013-01-25 03:25:00,
2013-01-24 22:30:00,13.6,3.3,30.52,ENE,75,2.0,3.0,63,0.00,,,0.00,Wunderground v.1.15,2013-01-25 03:30:00,
2013-01-24 22:35:00,13.6,3.7,30.52,ENE,75,3.0,3.0,64,0.00,,,0.00,Wunderground v.1.15,2013-01-25 03:35:00,
2013-01-24 22:40:00,13.7,3.8,30.52,ENE,77,3.0,3.0,64,0.00,,,0.00,Wunderground v.1.15,2013-01-25 03:40:00,
2013-01-24 22:50:00,13.9,3.6,30.52,East,97,4.0,4.0,63,0.00,,,0.00,Wunderground v.1.15,2013-01-25 03:50:00,
2013-01-24 22:55:00,13.9,3.6,30.52,ESE,105,4.0,4.0,63,0.00,,,0.00,Wunderground v.1.15,2013-01-25 03:55:00,
2013-01-24 23:00:00,14.0,3.7,30.52,East,84,3.0,3.0,63,0.00,,,0.00,Wunderground v.1.15,2013-01-25 04:00:00,
2013-01-24 23:05:00,14.0,3.7,30.52,East,101,3.0,4.0,63,0.00,,,0.00,Wunderground v.1.15,2013-01-25 04:05:00,
2013-01-24 23:10:00,14.0,4.4,30.52,ESE,114,3.0,3.0,65,0.00,,,0.00,Wunderground v.1.15,2013-01-25 04:10:00,
2013-01-24 23:15:00,14.0,4.1,30.52,ESE,103,3.0,3.0,64,0.00,,,0.00,Wunderground v.1.15,2013-01-25 04:15:00,
2013-01-24 23:20:00,14.0,4.7,30.52,ESE,108,3.0,3.0,66,0.00,,,0.00,Wunderground v.1.15,2013-01-25 04:20:00,
2013-01-24 23:25:00,14.0,4.1,30.52,SE,128,3.0,5.0,64,0.00,,,0.00,Wunderground v.1.15,2013-01-25 04:25:00,
2013-01-24 23:30:00,14.1,3.5,30.52,ESE,108,4.0,4.0,62,0.00,,,0.00,Wunderground v.1.15,2013-01-25 04:30:00,
2013-01-24 23:40:00,14.1,3.8,30.52,SE,135,2.0,2.0,63,0.00,,,0.00,Wunderground v.1.15,2013-01-25 04:40:00,
2013-01-24 23:45:00,14.1,3.5,30.51,SE,124,2.0,2.0,62,0.00,,,0.00,Wunderground v.1.15,2013-01-25 04:45:00,
2013-01-24 23:50:00,14.2,3.6,30.51,SE,128,3.0,5.0,62,0.00,,,0.00,Wunderground v.1.15,2013-01-25 04:50:00,
2013-01-24 23:55:00,14.2,3.6,30.51,ESE,110,4.0,5.0,62,0.00,,,0.00,Wunderground v.1.15,2013-01-25 04:55:00,